createdAt,value
2023-03-24T00:02:00.009Z,72.38
2023-03-24T00:05:01.622Z,72.74
2023-03-24T00:08:04.640Z,72.51
2023-03-24T00:11:08.823Z,72.23
2023-03-24T00:14:13.676Z,72.72
2023-03-24T00:17:17.891Z,73.13
2023-03-24T00:20:23.049Z,72.90
2023-03-24T00:23:27.997Z,72.74
2023-03-24T00:26:30.037Z,72.32
2023-03-24T00:29:32.307Z,72.57
2023-03-24T00:32:36.872Z,73.00
2023-03-24T00:35:39.395Z,72.71
2023-03-24T00:38:41.678Z,72.76
2023-03-24T00:41:45.158Z,72.21
2023-03-24T00:44:48.529Z,72.85
2023-03-24T00:47:54.005Z,73.02
2023-03-24T00:50:56.460Z,73.63
2023-03-24T00:53:59.390Z,73.41
2023-03-24T00:57:03.124Z,73.31
2023-03-24T01:00:14.555Z,73.37
2023-03-24T01:03:18.240Z,73.45
2023-03-24T01:06:22.346Z,72.90
2023-03-24T01:09:25.212Z,72.74
2023-03-24T01:12:36.939Z,73.16
2023-03-24T01:15:39.630Z,73.19
2023-03-24T01:18:44.013Z,73.21
2023-03-24T01:21:45.678Z,73.87
2023-03-24T01:24:49.773Z,73.50
2023-03-24T01:27:52.409Z,74.67
2023-03-24T01:30:55.093Z,75.47
2023-03-24T01:33:56.976Z,75.56
2023-03-24T01:36:59.889Z,78.05
2023-03-24T01:40:02.271Z,78.67
2023-03-24T01:43:07.817Z,78.52
2023-03-24T01:46:23.581Z,79.21
2023-03-24T01:49:47.643Z,79.74
2023-03-24T01:52:49.766Z,79.60
2023-03-24T01:55:51.962Z,78.91
2023-03-24T01:59:00.251Z,79.26
2023-03-24T02:02:14.611Z,79.79
2023-03-24T02:05:33.401Z,79.79
2023-03-24T02:08:52.663Z,80.49
2023-03-24T02:11:55.395Z,81.10
2023-03-24T02:14:57.121Z,81.68
2023-03-24T02:18:06.113Z,81.28
2023-03-24T02:21:51.625Z,84.32
2023-03-24T02:25:21.731Z,83.46
2023-03-24T02:28:29.314Z,82.29
2023-03-24T02:31:56.147Z,83.75
2023-03-24T02:35:28.869Z,84.00
2023-03-24T02:38:35.445Z,84.10
2023-03-24T02:42:07.591Z,85.60
2023-03-24T02:45:20.690Z,83.24
2023-03-24T02:48:31.516Z,82.57
2023-03-24T02:51:43.902Z,83.61
2023-03-24T02:55:00.362Z,83.46
2023-03-24T02:58:08.056Z,84.22
2023-03-24T03:01:31.652Z,84.64
2023-03-24T03:05:03.783Z,84.38
2023-03-24T03:08:09.594Z,84.74
2023-03-24T03:11:15.393Z,85.24
2023-03-24T03:14:38.158Z,85.80
2023-03-24T03:17:53.297Z,85.68
2023-03-24T03:21:04.983Z,86.13
2023-03-24T03:24:17.639Z,86.45
2023-03-24T03:27:27.130Z,86.13
2023-03-24T03:30:40.151Z,86.97
2023-03-24T03:34:38.426Z,87.07
2023-03-24T03:38:14.056Z,85.79
2023-03-24T03:41:18.637Z,86.01
2023-03-24T03:44:22.326Z,86.20
2023-03-24T03:47:24.169Z,86.58
2023-03-24T03:50:25.948Z,85.92
2023-03-24T03:53:37.762Z,85.95
2023-03-24T03:56:39.781Z,85.26
2023-03-24T04:00:14.531Z,86.21
2023-03-24T04:03:37.223Z,85.53
2023-03-24T04:06:54.177Z,86.00
2023-03-24T04:10:21.145Z,86.38
2023-03-24T04:13:56.685Z,86.39
2023-03-24T04:17:43.491Z,85.66
2023-03-24T04:20:50.749Z,85.78
2023-03-24T04:24:21.912Z,86.24
2023-03-24T04:27:38.405Z,85.40
2023-03-24T04:31:18.915Z,86.22
2023-03-24T04:34:46.282Z,85.97
2023-03-24T04:38:08.744Z,86.08
2023-03-24T04:41:10.620Z,86.11
2023-03-24T04:44:17.704Z,86.25
2023-03-24T04:47:51.895Z,86.33
2023-03-24T04:51:12.715Z,85.38
2023-03-24T04:54:28.130Z,85.55
2023-03-24T04:57:37.795Z,86.37
2023-03-24T05:00:41.526Z,86.29
2023-03-24T05:03:45.989Z,86.44
2023-03-24T05:06:52.174Z,86.29
2023-03-24T05:09:58.775Z,86.52
2023-03-24T05:13:01.010Z,86.50
2023-03-24T05:16:21.340Z,86.89
2023-03-24T05:19:32.798Z,86.81
2023-03-24T05:22:34.429Z,86.52
2023-03-24T05:25:36.122Z,86.74
2023-03-24T05:28:38.069Z,87.07
2023-03-24T05:31:40.017Z,86.23
2023-03-24T05:34:49.074Z,85.98
2023-03-24T05:37:53.422Z,86.18
2023-03-24T05:41:00.120Z,85.61
2023-03-24T05:44:08.182Z,86.32
2023-03-24T05:47:12.796Z,86.81
2023-03-24T05:50:14.656Z,86.05
2023-03-24T05:53:16.482Z,86.81
2023-03-24T05:56:45.657Z,87.05
2023-03-24T06:00:10.666Z,87.33
2023-03-24T06:03:35.462Z,87.71
2023-03-24T06:06:45.971Z,87.59
2023-03-24T06:09:51.072Z,86.61
2023-03-24T06:12:56.213Z,86.99
2023-03-24T06:16:01.629Z,86.02
2023-03-24T06:19:17.788Z,86.22
2023-03-24T06:22:44.519Z,86.95
2023-03-24T06:25:50.765Z,86.43
2023-03-24T06:28:59.766Z,86.75
2023-03-24T06:32:06.962Z,87.15
2023-03-24T06:35:17.197Z,86.86
2023-03-24T06:38:28.757Z,86.23
2023-03-24T06:41:31.312Z,86.46
2023-03-24T06:44:35.955Z,86.59
2023-03-24T06:47:38.264Z,85.86
2023-03-24T06:50:42.457Z,86.38
2023-03-24T06:53:45.988Z,86.58
2023-03-24T06:56:49.044Z,86.26
2023-03-24T06:59:53.362Z,85.97
2023-03-24T07:02:56.766Z,85.72
2023-03-24T07:06:00.143Z,85.98
2023-03-24T07:09:03.066Z,86.30
2023-03-24T07:12:09.112Z,86.03
2023-03-24T07:15:14.180Z,85.97
2023-03-24T07:18:22.065Z,86.33
2023-03-24T07:21:30.989Z,86.92
2023-03-24T07:24:38.279Z,85.81
2023-03-24T07:27:59.874Z,86.36
2023-03-24T07:31:06.867Z,86.78
2023-03-24T07:34:09.166Z,86.68
2023-03-24T07:37:12.895Z,86.60
2023-03-24T07:40:16.134Z,88.20
2023-03-24T07:43:19.109Z,87.61
2023-03-24T07:46:38.390Z,88.84
2023-03-24T07:49:45.104Z,88.57
2023-03-24T07:52:49.921Z,89.36
2023-03-24T07:55:55.224Z,89.20
2023-03-24T07:59:01.424Z,89.03
2023-03-24T08:02:23.371Z,89.24
2023-03-24T08:05:34.850Z,89.34
2023-03-24T08:09:08.567Z,88.99
2023-03-24T08:12:20.083Z,89.36
2023-03-24T08:15:24.065Z,90.10
2023-03-24T08:18:25.934Z,90.42
2023-03-24T08:21:28.173Z,90.85
2023-03-24T08:24:32.647Z,90.60
2023-03-24T08:27:35.922Z,90.30
2023-03-24T08:30:41.011Z,90.39
2023-03-24T08:33:44.868Z,90.76
2023-03-24T08:36:51.358Z,90.94
2023-03-24T08:40:00.405Z,90.72
2023-03-24T08:43:08.827Z,90.31
2023-03-24T08:46:15.673Z,90.49
2023-03-24T08:49:19.432Z,90.60
2023-03-24T08:52:21.833Z,91.15
2023-03-24T08:55:24.432Z,89.80
2023-03-24T08:58:32.963Z,89.19
2023-03-24T09:01:45.807Z,89.71
2023-03-24T09:04:48.042Z,89.20
2023-03-24T09:07:54.443Z,89.05
2023-03-24T09:10:57.561Z,89.24
2023-03-24T09:14:02.412Z,88.11
2023-03-24T09:17:07.145Z,88.67
2023-03-24T09:20:17.079Z,88.22
2023-03-24T09:23:21.593Z,88.06
2023-03-24T09:26:24.304Z,87.24
2023-03-24T09:29:27.056Z,87.92
2023-03-24T09:32:29.229Z,86.12
2023-03-24T09:35:35.247Z,87.08
2023-03-24T09:38:39.938Z,87.56
2023-03-24T09:41:46.585Z,88.50
2023-03-24T09:44:57.687Z,89.46
2023-03-24T09:48:17.125Z,89.97
2023-03-24T09:51:32.741Z,91.44
2023-03-24T09:54:55.934Z,91.42
2023-03-24T09:58:08.436Z,91.90
2023-03-24T10:01:18.504Z,91.89
2023-03-24T10:04:26.020Z,92.20
2023-03-24T10:07:47.750Z,93.90
2023-03-24T10:11:45.036Z,95.41
2023-03-24T10:15:06.046Z,95.50
2023-03-24T10:18:37.675Z,95.87
2023-03-24T10:21:50.944Z,96.75
2023-03-24T10:25:30.558Z,96.95
2023-03-24T10:28:53.351Z,97.58
2023-03-24T10:32:16.726Z,98.17
2023-03-24T10:35:33.821Z,97.26
2023-03-24T10:38:38.262Z,96.67
2023-03-24T10:41:42.799Z,96.11
2023-03-24T10:44:48.552Z,92.55
2023-03-24T10:47:55.278Z,93.28
2023-03-24T10:50:58.888Z,92.65
2023-03-24T10:54:25.853Z,91.37
2023-03-24T10:57:31.601Z,89.81
2023-03-24T11:00:42.781Z,86.69
2023-03-24T11:03:51.583Z,87.48
2023-03-24T11:07:23.321Z,87.30
2023-03-24T11:10:30.209Z,87.01
2023-03-24T11:13:36.047Z,86.32
2023-03-24T11:16:49.185Z,86.98
2023-03-24T11:19:57.495Z,86.36
2023-03-24T11:23:12.052Z,85.44
2023-03-24T11:26:22.904Z,84.86
2023-03-24T11:29:30.234Z,84.72
2023-03-24T11:32:33.346Z,84.95
2023-03-24T11:35:42.040Z,85.46
2023-03-24T11:39:03.908Z,84.45
2023-03-24T11:42:15.970Z,83.84
2023-03-24T11:45:40.061Z,82.29
2023-03-24T11:48:55.906Z,82.76
2023-03-24T11:51:59.481Z,82.34
2023-03-24T11:55:14.058Z,82.28
2023-03-24T11:58:29.271Z,82.30
2023-03-24T12:01:51.188Z,80.69
2023-03-24T12:05:28.514Z,80.81
2023-03-24T12:08:55.183Z,81.15
2023-03-24T12:12:27.773Z,81.18
2023-03-24T12:15:56.580Z,80.31
2023-03-24T12:19:16.772Z,79.66
2023-03-24T12:22:53.506Z,79.42
2023-03-24T12:26:20.508Z,76.73
2023-03-24T12:29:52.994Z,75.56
2023-03-24T12:33:33.918Z,74.88
2023-03-24T12:36:44.014Z,74.29
2023-03-24T12:40:23.335Z,72.77
2023-03-24T12:43:38.238Z,73.38
2023-03-24T12:47:13.224Z,73.30
2023-03-24T12:50:54.702Z,72.50
2023-03-24T12:54:24.004Z,72.68
2023-03-24T12:57:32.522Z,72.66
2023-03-24T13:00:53.235Z,74.94
2023-03-24T13:04:11.667Z,76.35
2023-03-24T13:07:23.873Z,76.18
2023-03-24T13:10:41.029Z,76.78
2023-03-24T13:13:57.499Z,76.65
2023-03-24T13:17:13.740Z,75.40
2023-03-24T13:20:36.771Z,76.15
2023-03-24T13:24:01.809Z,76.14
2023-03-24T13:27:25.521Z,75.77
2023-03-24T13:30:44.840Z,75.10
2023-03-24T13:33:49.214Z,74.70
2023-03-24T13:37:01.497Z,73.72
2023-03-24T13:40:14.026Z,73.57
2023-03-24T13:43:28.423Z,73.77
2023-03-24T13:46:30.637Z,73.62
2023-03-24T13:49:35.121Z,73.51
2023-03-24T13:52:44.962Z,72.61
2023-03-24T13:55:53.496Z,72.23
2023-03-24T13:59:30.989Z,73.31
2023-03-24T14:02:55.560Z,72.77
2023-03-24T14:06:09.587Z,73.97
2023-03-24T14:09:31.024Z,75.88
2023-03-24T14:13:14.877Z,76.70
2023-03-24T14:16:35.667Z,76.80
2023-03-24T14:20:06.647Z,77.18
2023-03-24T14:23:24.980Z,77.53
2023-03-24T14:26:39.090Z,77.65
2023-03-24T14:30:09.669Z,76.30
2023-03-24T14:33:26.325Z,76.53
2023-03-24T14:36:40.455Z,77.29
2023-03-24T14:39:49.729Z,75.12
2023-03-24T14:43:05.285Z,75.35
2023-03-24T14:46:12.009Z,74.73
2023-03-24T14:49:31.427Z,74.63
2023-03-24T14:52:57.413Z,74.63
2023-03-24T14:56:01.533Z,74.77
2023-03-24T14:59:13.406Z,74.98
2023-03-24T15:02:30.787Z,74.99
2023-03-24T15:05:35.146Z,75.00
2023-03-24T15:08:43.992Z,75.12
2023-03-24T15:11:52.001Z,75.59
2023-03-24T15:14:57.978Z,75.67
2023-03-24T15:18:04.187Z,75.70
2023-03-24T15:21:18.906Z,75.39
2023-03-24T15:24:27.497Z,76.13
2023-03-24T15:27:33.651Z,77.69
2023-03-24T15:30:40.457Z,78.09
2023-03-24T15:33:44.147Z,78.85
2023-03-24T15:37:05.645Z,79.50
2023-03-24T15:40:30.442Z,80.47
2023-03-24T15:43:32.812Z,81.32
2023-03-24T15:46:37.096Z,81.75
2023-03-24T15:49:46.187Z,82.40
2023-03-24T15:53:02.088Z,83.72
2023-03-24T15:56:36.356Z,86.60
2023-03-24T15:59:44.636Z,86.35
2023-03-24T16:02:48.993Z,88.41
2023-03-24T16:05:51.516Z,88.74
2023-03-24T16:08:53.270Z,90.03
2023-03-24T16:11:57.321Z,90.15
2023-03-24T16:15:01.702Z,91.24
2023-03-24T16:18:09.765Z,91.53
2023-03-24T16:21:16.240Z,91.40
2023-03-24T16:24:18.494Z,91.61
2023-03-24T16:27:21.162Z,91.44
2023-03-24T16:30:27.548Z,92.36
2023-03-24T16:33:33.666Z,91.25
2023-03-24T16:36:40.383Z,91.84
2023-03-24T16:39:53.727Z,92.00
2023-03-24T16:42:59.566Z,92.50
2023-03-24T16:46:06.778Z,92.64
2023-03-24T16:49:16.509Z,92.47
2023-03-24T16:52:19.392Z,92.66
2023-03-24T16:55:24.330Z,92.27
2023-03-24T16:58:28.127Z,92.19
2023-03-24T17:01:37.333Z,92.24
2023-03-24T17:04:41.180Z,92.24
2023-03-24T17:07:47.730Z,92.51
2023-03-24T17:10:53.454Z,91.69
2023-03-24T17:14:07.746Z,91.62
2023-03-24T17:17:13.129Z,91.71
2023-03-24T17:20:17.244Z,91.50
2023-03-24T17:23:21.981Z,91.07
2023-03-24T17:26:26.419Z,90.61
2023-03-24T17:29:31.694Z,90.38
2023-03-24T17:32:37.646Z,90.46
2023-03-24T17:35:40.185Z,90.59
2023-03-24T17:38:51.456Z,89.71
2023-03-24T17:42:04.459Z,89.57
2023-03-24T17:45:25.699Z,90.01
2023-03-24T17:48:31.272Z,89.35
2023-03-24T17:51:37.438Z,89.13
2023-03-24T17:54:43.531Z,89.46
2023-03-24T17:57:50.119Z,89.60
2023-03-24T18:00:56.416Z,89.31
2023-03-24T18:03:59.495Z,89.11
2023-03-24T18:07:03.082Z,88.81
2023-03-24T18:10:08.429Z,89.23
2023-03-24T18:13:12.779Z,88.78
2023-03-24T18:16:21.882Z,89.19
2023-03-24T18:19:30.885Z,88.90
2023-03-24T18:22:33.336Z,88.26
2023-03-24T18:25:37.568Z,88.31
2023-03-24T18:28:40.191Z,88.53
2023-03-24T18:31:45.424Z,88.36
2023-03-24T18:34:47.642Z,89.09
2023-03-24T18:37:51.531Z,88.27
2023-03-24T18:41:19.050Z,88.57
2023-03-24T18:44:22.848Z,87.96
2023-03-24T18:47:28.147Z,88.57
2023-03-24T18:50:35.782Z,88.42
2023-03-24T18:53:40.540Z,88.06
2023-03-24T18:56:46.406Z,88.00
2023-03-24T18:59:50.892Z,87.26
2023-03-24T19:02:54.728Z,87.10
2023-03-24T19:06:06.503Z,87.39
2023-03-24T19:09:12.370Z,87.60
2023-03-24T19:12:21.295Z,87.30
2023-03-24T19:15:30.060Z,86.58
2023-03-24T19:18:37.353Z,86.67
2023-03-24T19:21:40.350Z,86.22
2023-03-24T19:24:43.521Z,86.05
2023-03-24T19:27:46.997Z,86.78
2023-03-24T19:30:48.719Z,86.89
2023-03-24T19:33:54.601Z,86.78
2023-03-24T19:36:58.606Z,86.33
2023-03-24T19:40:17.539Z,85.74
2023-03-24T19:43:23.146Z,85.97
2023-03-24T19:46:27.908Z,85.86
2023-03-24T19:49:34.726Z,86.23
2023-03-24T19:52:43.983Z,85.48
2023-03-24T19:55:50.226Z,85.67
2023-03-24T19:58:57.172Z,84.97
2023-03-24T20:01:59.934Z,84.73
2023-03-24T20:05:03.234Z,85.35
2023-03-24T20:08:06.317Z,85.05
2023-03-24T20:11:15.122Z,84.02
2023-03-24T20:14:21.237Z,84.47
2023-03-24T20:17:30.592Z,84.58
2023-03-24T20:20:32.721Z,83.72
2023-03-24T20:23:34.986Z,83.72
2023-03-24T20:26:39.797Z,83.16
2023-03-24T20:29:44.589Z,82.62
2023-03-24T20:32:53.226Z,82.97
2023-03-24T20:35:59.892Z,82.69
2023-03-24T20:39:06.195Z,82.92
2023-03-24T20:42:15.003Z,82.66
2023-03-24T20:45:21.338Z,82.68
2023-03-24T20:48:26.026Z,82.45
2023-03-24T20:51:29.366Z,82.08
2023-03-24T20:54:35.130Z,82.65
2023-03-24T20:57:38.726Z,82.17
2023-03-24T21:00:47.137Z,82.21
2023-03-24T21:04:08.285Z,81.59
2023-03-24T21:07:14.469Z,81.01
2023-03-24T21:10:24.932Z,82.00
2023-03-24T21:17:32.858Z,82.20
2023-03-24T21:20:40.837Z,81.62
2023-03-24T21:23:52.178Z,82.08
2023-03-24T21:26:58.106Z,82.51
2023-03-24T21:30:03.237Z,81.82
2023-03-24T21:33:05.736Z,82.76
2023-03-24T21:36:12.595Z,81.84
2023-03-24T21:39:14.968Z,82.34
2023-03-24T21:42:23.035Z,82.41
2023-03-24T21:45:29.952Z,82.97
2023-03-24T21:48:37.765Z,83.00
2023-03-24T21:51:43.065Z,82.69
2023-03-24T21:54:46.251Z,83.01
2023-03-24T21:57:52.997Z,83.29
2023-03-24T22:00:58.438Z,83.46
2023-03-24T22:04:01.650Z,83.30
2023-03-24T22:07:09.375Z,83.30
2023-03-24T22:10:16.824Z,83.75
2023-03-24T22:13:21.824Z,84.15
2023-03-24T22:16:23.663Z,83.86
2023-03-24T22:19:27.318Z,84.14
2023-03-24T22:22:32.623Z,84.51
2023-03-24T22:25:34.840Z,84.71
2023-03-24T22:28:41.597Z,84.83
2023-03-24T22:31:46.071Z,84.74
2023-03-24T22:34:49.501Z,85.14
2023-03-24T22:37:55.048Z,85.67
2023-03-24T22:41:04.749Z,85.47
2023-03-24T22:44:06.931Z,85.14
2023-03-24T22:47:12.846Z,86.10
2023-03-24T22:50:19.516Z,85.74
2023-03-24T22:53:24.079Z,85.63
2023-03-24T22:56:29.949Z,85.55
2023-03-24T22:59:35.724Z,85.80
2023-03-24T23:02:42.731Z,85.55
2023-03-24T23:05:48.251Z,85.74
2023-03-24T23:08:54.538Z,86.14
2023-03-24T23:11:56.556Z,85.78
2023-03-24T23:14:58.098Z,85.96
2023-03-24T23:18:02.958Z,85.57
2023-03-24T23:21:12.299Z,86.27
2023-03-24T23:24:19.234Z,86.20
2023-03-24T23:27:30.159Z,85.74
2023-03-24T23:30:32.884Z,85.91
2023-03-24T23:33:37.302Z,86.29
2023-03-24T23:36:46.779Z,85.80
2023-03-24T23:39:55.273Z,86.45
2023-03-24T23:42:58.183Z,86.20
2023-03-24T23:46:00.208Z,85.91
2023-03-24T23:49:12.328Z,86.33
2023-03-24T23:52:16.477Z,86.12
2023-03-24T23:55:23.290Z,86.11
2023-03-24T23:58:29.907Z,86.23
